Time;durP1;ratioP1;P1;durP2;ratioP2;P2;SDS_P1;SDS_P2;PMS_P1;PMS_P2;Temp;Humidity;BMP_temperature;BMP_pressure;BME280_temperature;BME280_humidity;BME280_pressure;Samples;Min_cycle;Max_cycle;Signal;HPM_P1;HPM_P2
2021/12/17 00:08:35;;;;;;;22.40;7.57;;;;;;;3.82;100.00;101182.50;5053350;28;20121;-74
2021/12/17 00:11:21;;;;;;;18.02;7.03;;;;;;;3.78;100.00;101181.56;5053117;28;20041;-74
2021/12/17 00:14:05;;;;;;;26.20;10.35;;;;;;;3.78;100.00;101175.50;5052222;28;20041;-74
2021/12/17 00:16:50;;;;;;;24.25;8.70;;;;;;;3.76;100.00;101180.63;5053051;28;20423;-73
2021/12/17 00:44:17;;;;;;;19.60;6.65;;;;;;;3.72;100.00;101192.63;5052030;28;20052;-74
2021/12/17 00:50:17;;;;;;;17.17;6.18;;;;;;;3.74;100.00;101184.91;5051923;28;20037;-74
2021/12/17 00:53:02;;;;;;;35.08;14.95;;;;;;;3.60;100.00;101179.38;5051645;28;20041;-74
2021/12/17 00:55:47;;;;;;;29.48;12.65;;;;;;;3.58;100.00;101183.66;5052552;28;20052;-74
2021/12/17 00:58:31;;;;;;;46.72;19.63;;;;;;;3.60;100.00;101181.97;5051586;28;20049;-74
2021/12/17 01:01:16;;;;;;;26.75;9.82;;;;;;;3.64;100.00;101189.00;5052402;28;20052;-74
2021/12/17 01:04:01;;;;;;;51.15;15.60;;;;;;;3.63;100.00;101189.81;5052384;28;20133;-74
2021/12/17 01:06:47;;;;;;;29.08;10.07;;;;;;;3.62;100.00;101187.19;5051861;28;20479;-74
2021/12/17 01:09:32;;;;;;;21.90;8.52;;;;;;;3.67;100.00;101191.66;5037618;28;20045;-74
2021/12/17 01:12:20;;;;;;;14.60;4.53;;;;;;;3.62;100.00;101198.44;5051613;28;20044;-74
2021/12/17 01:15:24;;;;;;;17.92;6.80;;;;;;;3.56;100.00;101198.28;5051563;28;20037;-74
2021/12/17 01:18:46;;;;;;;;;;;;;;;3.58;100.00;101198.34;5052027;28;20033;-74
2021/12/17 01:21:42;;;;;;;19.20;6.20;;;;;;;3.61;100.00;101199.28;5051411;28;19952;-74
2021/12/17 01:24:52;;;;;;;21.83;6.72;;;;;;;3.60;100.00;101189.72;5051581;28;20426;-74
2021/12/17 01:43:46;;;;;;;15.30;6.45;;;;;;;3.48;100.00;101182.56;5054638;28;20434;-74
2021/12/17 01:46:32;;;;;;;23.00;5.25;;;;;;;3.54;100.00;101184.41;5054726;28;20094;-74
2021/12/17 02:01:35;;;;;;;16.85;4.93;;;;;;;3.48;100.00;101213.63;5054448;28;20048;-73
2021/12/17 02:04:19;;;;;;;19.55;6.82;;;;;;;3.39;100.00;101231.53;5040634;28;20072;-73
2021/12/17 02:07:05;;;;;;;16.38;5.53;;;;;;;3.44;100.00;101227.31;5055037;28;20073;-74
2021/12/17 02:30:51;;;;;;;16.55;4.97;;;;;;;3.32;100.00;101228.75;5054114;28;20067;-73
2021/12/17 02:33:35;;;;;;;15.45;4.88;;;;;;;3.33;100.00;101226.19;5053749;28;20041;-73
2021/12/17 02:36:25;;;;;;;18.23;5.03;;;;;;;3.25;100.00;101225.97;5039989;28;20376;-73
2021/12/17 02:48:33;;;;;;;14.05;5.65;;;;;;;3.21;100.00;101206.00;5053602;28;20075;-74
2021/12/17 02:51:19;;;;;;;15.45;5.13;;;;;;;3.17;100.00;101196.41;5039535;28;20049;-73
2021/12/17 02:54:03;;;;;;;18.38;5.03;;;;;;;3.22;100.00;101197.41;5054106;28;20037;-74
2021/12/17 02:56:48;;;;;;;18.85;6.03;;;;;;;3.21;100.00;101184.41;5054362;28;20052;-74
2021/12/17 02:59:34;;;;;;;15.48;4.28;;;;;;;3.16;100.00;101197.25;5039249;28;20367;-74
2021/12/17 03:02:39;;;;;;;18.52;4.85;;;;;;;3.04;100.00;101171.00;5054419;28;20136;-74
2021/12/17 03:05:24;;;;;;;15.95;5.25;;;;;;;3.05;100.00;101188.28;5054212;28;20052;-74
2021/12/17 03:08:13;;;;;;;14.32;4.00;;;;;;;3.00;100.00;101185.59;5054033;28;20065;-74
2021/12/17 03:10:59;;;;;;;22.25;5.57;;;;;;;3.05;100.00;101177.94;5053244;28;20348;-74
2021/12/17 03:13:45;;;;;;;17.02;4.82;;;;;;;3.05;100.00;101185.69;5053158;28;20498;-74
2021/12/17 03:16:36;;;;;;;18.77;5.07;;;;;;;3.00;100.00;101183.00;5053193;28;20037;-74
2021/12/17 03:23:25;;;;;;;15.65;4.88;;;;;;;2.91;100.00;101174.09;5053846;28;20153;-73
2021/12/17 03:25:31;;;;;;;15.75;5.03;;;;;;;2.95;100.00;101179.38;5053865;28;20113;-73
2021/12/17 03:28:16;;;;;;;18.05;5.32;;;;;;;2.92;100.00;101170.66;5052929;28;20048;-74
2021/12/17 03:31:02;;;;;;;19.55;4.80;;;;;;;2.93;100.00;101175.03;5038991;28;20037;-73
2021/12/17 03:33:51;;;;;;;19.30;6.45;;;;;;;2.87;100.00;101167.09;5052891;28;20375;-73
2021/12/17 03:36:36;;;;;;;14.02;5.78;;;;;;;2.88;100.00;101156.78;5053586;28;20446;-73
2021/12/17 03:39:22;;;;;;;19.38;5.20;;;;;;;2.86;100.00;101170.50;5052902;28;20041;-74
2021/12/17 03:42:08;;;;;;;18.10;5.50;;;;;;;2.73;100.00;101171.84;5052830;28;20089;-73
2021/12/17 03:44:57;;;;;;;15.55;5.20;;;;;;;2.74;100.00;101165.88;5052681;28;20056;-73
2021/12/17 03:48:00;;;;;;;;;;;;;;;2.76;100.00;101164.19;5053113;28;20044;-74
2021/12/17 03:50:45;;;;;;;18.90;5.03;;;;;;;2.69;100.00;101152.78;5052791;28;19929;-73
2021/12/17 03:53:29;;;;;;;17.52;5.93;;;;;;;2.68;100.00;101152.75;5052785;28;20116;-73
2021/12/17 03:56:16;;;;;;;22.10;6.30;;;;;;;2.70;100.00;101138.16;5052363;28;20430;-74
2021/12/17 03:59:01;;;;;;;17.17;4.63;;;;;;;2.67;100.00;101148.44;5053071;28;20057;-73
2021/12/17 04:01:46;;;;;;;16.85;4.82;;;;;;;2.61;100.00;101146.53;5052622;28;20041;-73
2021/12/17 04:04:31;;;;;;;17.02;4.72;;;;;;;2.53;100.00;101151.47;5052512;28;20128;-73
2021/12/17 04:07:44;;;;;;;16.77;4.00;;;;;;;2.59;100.00;101150.78;5022179;28;20366;-73
2021/12/17 04:10:51;;;;;;;18.48;4.75;;;;;;;2.48;100.00;101154.78;5053155;28;20097;-73
2021/12/17 04:13:38;;;;;;;18.58;4.75;;;;;;;2.51;100.00;101157.47;5052417;28;20045;-74
2021/12/17 04:16:28;;;;;;;16.38;4.43;;;;;;;2.46;100.00;101167.66;5052329;28;20037;-73
2021/12/17 04:19:12;;;;;;;17.05;5.80;;;;;;;2.37;100.00;101158.75;5052258;28;20354;-73
2021/12/17 04:21:56;;;;;;;19.48;3.58;;;;;;;2.41;100.00;101177.00;5052346;28;20061;-73
2021/12/17 04:24:41;;;;;;;9.95;3.40;;;;;;;2.41;100.00;101174.41;5053016;28;20064;-73
2021/12/17 04:27:25;;;;;;;15.65;4.03;;;;;;;2.42;100.00;101170.13;5052244;28;20116;-73
2021/12/17 04:30:11;;;;;;;20.15;4.80;;;;;;;2.45;100.00;101172.78;5052121;28;20380;-73
2021/12/17 04:32:56;;;;;;;19.67;4.40;;;;;;;2.60;100.00;101162.91;5052001;28;20443;-73
2021/12/17 04:35:41;;;;;;;18.50;5.18;;;;;;;2.62;100.00;101162.94;5052209;28;20045;-74
2021/12/17 04:38:27;;;;;;;27.75;6.05;;;;;;;2.66;100.00;101146.66;5052101;28;20041;-73
2021/12/17 04:44:10;;;;;;;27.38;6.75;;;;;;;2.70;100.00;101144.22;5051959;28;20049;-73
2021/12/17 04:57:15;;;;;;;31.30;7.72;;;;;;;2.79;100.00;101134.13;5051896;28;20052;-73
2021/12/17 04:59:40;;;;;;;19.75;4.60;;;;;;;2.87;100.00;101148.97;5051628;28;20060;-73
2021/12/17 05:02:25;;;;;;;18.27;6.40;;;;;;;2.94;100.00;101148.31;5052015;28;20045;-73
2021/12/17 05:05:17;;;;;;;36.38;10.48;;;;;;;2.89;100.00;101145.56;5051712;28;20045;-73
2021/12/17 05:08:11;;;;;;;19.45;7.53;;;;;;;2.85;100.00;101141.16;5038034;28;20053;-73
2021/12/17 05:20:45;;;;;;;19.77;6.72;;;;;;;2.89;100.00;101135.22;5055010;28;20415;-73
2021/12/17 05:23:33;;;;;;;;;;;;;;;2.95;100.00;101144.88;5055642;28;20041;-73
2021/12/17 05:26:20;;;;;;;21.20;6.57;;;;;;;2.92;100.00;101142.19;5054951;28;20235;-73
2021/12/17 05:29:07;;;;;;;21.15;6.05;;;;;;;2.95;100.00;101142.28;5054898;28;20045;-74
2021/12/17 05:31:58;;;;;;;25.55;7.32;;;;;;;2.89;100.00;101131.75;5054872;28;20040;-73
2021/12/17 05:34:42;;;;;;;20.48;5.60;;;;;;;2.96;100.00;101134.56;5040834;28;20045;-73
2021/12/17 05:37:29;;;;;;;25.27;5.20;;;;;;;2.93;100.00;101126.72;5054869;28;20064;-74
2021/12/17 05:40:13;;;;;;;23.00;5.50;;;;;;;2.96;100.00;101128.53;5054743;28;20037;-73
2021/12/17 05:43:01;;;;;;;26.15;7.78;;;;;;;3.01;100.00;101135.56;5054717;28;20347;-73
2021/12/17 05:46:05;;;;;;;19.88;5.40;;;;;;;2.99;100.00;101154.47;5054830;28;20045;-73
2021/12/17 05:48:49;;;;;;;16.13;4.65;;;;;;;3.01;100.00;101153.69;5054687;28;20041;-73
2021/12/17 05:51:33;;;;;;;23.02;6.60;;;;;;;3.01;100.00;101150.22;5054608;28;20045;-73
2021/12/17 05:54:18;;;;;;;23.15;6.78;;;;;;;2.98;100.00;101152.72;5055140;28;20045;-74
2021/12/17 05:57:03;;;;;;;19.75;5.93;;;;;;;2.98;100.00;101151.00;5040559;28;20037;-73
2021/12/17 05:59:52;;;;;;;19.48;5.30;;;;;;;3.06;100.00;101164.16;5054293;28;20136;-73
2021/12/17 06:02:37;;;;;;;19.48;5.18;;;;;;;3.12;100.00;101151.41;5054405;28;20044;-73
2021/12/17 06:05:21;;;;;;;22.23;4.80;;;;;;;3.08;100.00;101157.31;5054366;28;20045;-73
2021/12/17 06:08:06;;;;;;;17.65;4.32;;;;;;;3.03;100.00;101164.09;5053996;28;20045;-73
2021/12/17 06:10:50;;;;;;;22.60;5.28;;;;;;;3.10;100.00;101160.81;5040278;28;20037;-74
2021/12/17 06:13:37;;;;;;;20.35;5.80;;;;;;;3.01;100.00;101156.25;5040476;28;20347;-73
2021/12/17 06:16:21;;;;;;;24.95;9.45;;;;;;;3.06;100.00;101165.88;5054253;28;20116;-74
2021/12/17 06:19:06;;;;;;;22.58;5.05;;;;;;;3.07;100.00;101167.63;5039990;28;20044;-74
2021/12/17 06:21:50;;;;;;;19.35;5.25;;;;;;;3.09;100.00;101161.66;5054257;28;20071;-73
2021/12/17 06:24:34;;;;;;;19.60;6.20;;;;;;;3.06;100.00;101159.00;5040022;28;20347;-74
2021/12/17 06:27:21;;;;;;;18.20;5.78;;;;;;;3.08;100.00;101161.63;5053979;28;20156;-74
2021/12/17 06:30:09;;;;;;;25.73;9.00;;;;;;;3.01;100.00;101164.03;5053769;28;20324;-73
2021/12/17 06:32:53;;;;;;;24.10;7.15;;;;;;;3.01;100.00;101169.22;5027223;28;20047;-73
2021/12/17 06:35:39;;;;;;;50.58;20.00;;;;;;;2.99;100.00;101172.59;5034110;28;20041;-73
2021/12/17 06:38:24;;;;;;;14.13;4.90;;;;;;;3.03;100.00;101172.72;5020339;28;20037;-73
2021/12/17 06:41:11;;;;;;;22.88;7.97;;;;;;;2.98;100.00;101174.31;5033906;28;20041;-73
2021/12/17 06:43:58;;;;;;;19.58;5.53;;;;;;;3.08;100.00;101177.16;5020028;28;20045;-74
2021/12/17 07:06:32;;;;;;;25.00;8.68;;;;;;;2.89;100.00;101175.75;5034303;28;20463;-73
2021/12/17 07:19:59;;;;;;;18.58;5.05;;;;;;;2.93;100.00;101185.38;5031347;28;20427;-73
2021/12/17 07:30:02;;;;;;;17.15;7.50;;;;;;;2.94;100.00;101192.31;5031158;28;20033;-73
2021/12/17 07:40:46;;;;;;;18.73;7.20;;;;;;;2.93;100.00;101165.56;5031022;28;20429;-74
2021/12/17 07:43:39;;;;;;;28.70;9.55;;;;;;;2.94;100.00;101172.47;5030892;28;20447;-74
2021/12/17 07:46:32;;;;;;;24.52;10.88;;;;;;;2.96;100.00;101169.94;5031067;28;20049;-73
2021/12/17 07:49:17;;;;;;;36.90;13.88;;;;;;;2.91;100.00;101171.50;5030988;28;20041;-74
2021/12/17 07:52:02;;;;;;;30.08;10.60;;;;;;;2.92;100.00;101175.84;5030952;28;20045;-73
2021/12/17 07:54:47;;;;;;;20.38;8.43;;;;;;;2.84;100.00;101180.81;5017546;28;20056;-73
2021/12/17 07:57:31;;;;;;;21.77;9.32;;;;;;;2.85;100.00;101181.69;5033935;28;20050;-74
2021/12/17 08:00:16;;;;;;;25.85;10.65;;;;;;;2.89;100.00;101192.16;5032805;28;20049;-73
2021/12/17 08:03:01;;;;;;;29.60;11.55;;;;;;;2.89;100.00;101181.81;5032706;28;20049;-74
2021/12/17 08:06:14;;;;;;;40.70;14.68;;;;;;;2.76;100.00;101167.69;5028099;28;20054;-71
2021/12/17 08:09:19;;;;;;;31.27;10.88;;;;;;;2.90;100.00;101172.34;5019409;28;20047;-71
2021/12/17 08:12:05;;;;;;;25.63;15.00;;;;;;;2.95;100.00;101194.06;5030658;28;20312;-71
2021/12/17 08:15:16;;;;;;;43.92;22.65;;;;;;;2.95;100.00;101187.16;5031260;28;20042;-71
2021/12/17 08:29:55;;;;;;;62.75;26.48;;;;;;;2.99;100.00;101216.59;5032108;28;20045;-71
2021/12/17 08:32:44;;;;;;;26.33;15.25;;;;;;;2.97;100.00;101224.31;5030263;28;20041;-71
2021/12/17 08:35:31;;;;;;;42.25;17.48;;;;;;;3.10;100.00;101215.19;5030215;28;20045;-72
2021/12/17 08:38:20;;;;;;;55.17;27.13;;;;;;;3.06;100.00;101221.13;5030095;28;20049;-71
2021/12/17 08:41:05;;;;;;;33.55;17.40;;;;;;;3.11;100.00;101223.84;5030192;28;20102;-71
2021/12/17 08:43:50;;;;;;;61.20;27.75;;;;;;;3.20;100.00;101239.63;5031599;28;20359;-71
2021/12/17 08:46:36;;;;;;;43.03;24.00;;;;;;;3.14;100.00;101232.56;5035153;28;20045;-71
2021/12/17 08:49:30;;;;;;;66.05;29.27;;;;;;;3.13;100.00;101233.41;5035501;28;20045;-71
2021/12/17 08:52:26;;;;;;;55.95;26.85;;;;;;;3.05;100.00;101232.28;5023300;28;20046;-71
2021/12/17 08:55:11;;;;;;;49.97;21.92;;;;;;;3.06;100.00;101233.19;5035670;28;20042;-71
2021/12/17 08:57:55;;;;;;;29.20;15.00;;;;;;;3.03;100.00;101231.41;5035687;28;20045;-71
2021/12/17 09:00:42;;;;;;;24.02;14.90;;;;;;;3.02;100.00;101239.97;5035581;28;20049;-71
2021/12/17 09:03:26;;;;;;;48.90;23.58;;;;;;;3.02;100.00;101227.94;5021597;28;20168;-71
2021/12/17 09:06:24;;;;;;;73.10;36.63;;;;;;;3.01;100.00;101233.94;5035242;28;20049;-71
2021/12/17 09:09:09;;;;;;;153.63;82.80;;;;;;;2.98;100.00;101220.03;5035122;28;20049;-71
2021/12/17 09:11:53;;;;;;;170.55;86.50;;;;;;;3.10;100.00;101240.22;5035613;28;20041;-71
2021/12/17 09:14:45;;;;;;;124.25;56.60;;;;;;;3.09;100.00;101239.34;5035488;28;20114;-71
2021/12/17 09:17:48;;;;;;;100.05;41.10;;;;;;;2.96;100.00;101238.13;5035809;28;20128;-71
2021/12/17 09:20:35;;;;;;;47.80;25.33;;;;;;;2.91;100.00;101226.75;5035127;28;20045;-71
2021/12/17 09:23:20;;;;;;;123.90;53.15;;;;;;;3.15;100.00;101238.59;5035479;28;20057;-71
2021/12/17 09:26:05;;;;;;;197.70;79.10;;;;;;;3.04;100.00;101235.72;5035483;28;20053;-71
2021/12/17 09:28:50;;;;;;;234.68;91.07;;;;;;;3.11;100.00;101240.25;5034801;28;20045;-71
2021/12/17 09:31:36;;;;;;;195.57;72.63;;;;;;;3.04;100.00;101253.84;5035980;28;20038;-71
2021/12/17 09:34:21;;;;;;;163.68;64.97;;;;;;;2.91;100.00;101246.56;5035978;28;20407;-71
2021/12/17 09:37:06;;;;;;;269.85;107.60;;;;;;;2.98;100.00;101239.00;5035620;28;20328;-71
2021/12/17 09:39:50;;;;;;;216.20;88.05;;;;;;;2.97;100.00;101242.44;5035477;28;20061;-71
2021/12/17 09:42:35;;;;;;;140.25;58.40;;;;;;;3.01;100.00;101239.09;5035369;28;20037;-71
2021/12/17 09:45:19;;;;;;;108.45;53.92;;;;;;;2.98;100.00;101240.72;5035508;28;20064;-71
2021/12/17 09:48:04;;;;;;;138.73;60.05;;;;;;;3.01;100.00;101240.81;5035061;28;20063;-71
2021/12/17 09:50:52;;;;;;;226.68;90.38;;;;;;;3.00;100.00;101247.72;5035796;28;20065;-71
2021/12/17 09:53:36;;;;;;;295.80;104.30;;;;;;;3.02;100.00;101229.63;5034289;28;20349;-71
2021/12/17 09:56:20;;;;;;;138.02;50.95;;;;;;;3.12;100.00;101238.53;5035207;28;20046;-71
2021/12/17 09:59:04;;;;;;;121.38;50.30;;;;;;;2.89;100.00;101232.69;5034988;28;20053;-71
2021/12/17 10:01:49;;;;;;;120.35;49.47;;;;;;;2.93;100.00;101226.81;5035349;28;20045;-71
2021/12/17 10:04:33;;;;;;;160.18;62.95;;;;;;;3.11;100.00;101218.66;5034218;28;20045;-71
2021/12/17 10:07:26;;;;;;;121.93;49.63;;;;;;;3.06;100.00;101231.47;5020209;28;20046;-71
2021/12/17 10:10:12;;;;;;;;;;;;;;;3.08;100.00;101227.22;5035460;28;20041;-72
2021/12/17 10:13:06;;;;;;;118.65;49.03;;;;;;;3.04;100.00;101226.25;5033413;28;19932;-72
2021/12/17 10:15:55;;;;;;;144.02;57.17;;;;;;;3.09;100.00;101225.50;5032392;28;20042;-71
2021/12/17 10:18:46;;;;;;;115.72;49.08;;;;;;;3.08;100.00;101237.56;5033122;28;20046;-75
2021/12/17 10:21:30;;;;;;;74.13;36.58;;;;;;;3.09;100.00;101210.84;5033010;28;20049;-75
2021/12/17 10:24:22;;;;;;;103.72;47.83;;;;;;;3.14;100.00;101210.97;5032991;28;20046;-75
2021/12/17 10:27:22;;;;;;;65.38;31.92;;;;;;;3.08;100.00;101221.16;5033035;28;20037;-75
2021/12/17 10:30:11;;;;;;;52.72;30.13;;;;;;;3.19;100.00;101199.91;5032859;28;20069;-75
2021/12/17 10:32:58;;;;;;;59.38;28.25;;;;;;;3.23;100.00;101213.81;5032875;28;20071;-75
2021/12/17 10:35:46;;;;;;;51.58;28.05;;;;;;;3.20;100.00;101212.00;5033038;28;20038;-75
2021/12/17 10:38:31;;;;;;;56.50;30.77;;;;;;;3.18;100.00;101218.84;5034135;28;20434;-75
2021/12/17 10:41:15;;;;;;;55.10;28.08;;;;;;;3.18;100.00;101220.56;5034996;28;20101;-71
2021/12/17 10:44:08;;;;;;;55.75;26.27;;;;;;;3.20;100.00;101222.38;5033706;28;20363;-71
2021/12/17 10:47:13;;;;;;;61.75;31.17;;;;;;;3.15;100.00;101213.63;5033812;28;20046;-72
2021/12/17 10:49:59;;;;;;;47.38;23.92;;;;;;;3.09;100.00;101210.84;5034330;28;20048;-71
2021/12/17 10:52:55;;;;;;;50.88;24.38;;;;;;;3.27;100.00;101220.81;5034797;28;20094;-72
2021/12/17 10:55:43;;;;;;;50.58;28.83;;;;;;;3.24;100.00;101223.34;5033960;28;20102;-71
2021/12/17 10:58:27;;;;;;;45.50;25.25;;;;;;;3.26;100.00;101221.66;5033734;28;20041;-72
2021/12/17 11:01:12;;;;;;;47.22;22.55;;;;;;;3.13;100.00;101209.22;5033484;28;20053;-72
2021/12/17 11:04:29;;;;;;;43.85;21.52;;;;;;;3.28;100.00;101228.66;5034574;28;20049;-72
2021/12/17 11:07:17;;;;;;;41.65;21.35;;;;;;;3.23;100.00;101222.47;5033343;28;20045;-72
2021/12/17 11:10:02;;;;;;;44.63;19.52;;;;;;;3.27;100.00;101211.34;5034331;28;20045;-71
2021/12/17 11:12:46;;;;;;;38.97;17.98;;;;;;;3.41;100.00;101209.13;5033515;28;20038;-71
2021/12/17 11:15:31;;;;;;;43.55;20.88;;;;;;;3.47;100.00;101206.69;5034481;28;20061;-72
2021/12/17 11:18:15;;;;;;;46.60;21.70;;;;;;;3.44;100.00;101197.94;5033209;28;20045;-72
2021/12/17 11:20:59;;;;;;;32.58;14.40;;;;;;;3.34;100.00;101209.78;5033404;28;20066;-72
2021/12/17 11:23:45;;;;;;;33.70;16.42;;;;;;;3.34;100.00;101208.91;5033827;28;20045;-72
2021/12/17 11:26:29;;;;;;;28.90;15.32;;;;;;;3.52;100.00;101206.81;5033990;28;20121;-71
2021/12/17 11:29:16;;;;;;;32.25;16.98;;;;;;;3.56;100.00;101205.19;5019586;28;20044;-71
2021/12/17 11:32:03;;;;;;;31.88;16.45;;;;;;;3.45;100.00;101184.19;5033014;28;20041;-71
2021/12/17 11:34:48;;;;;;;31.27;16.10;;;;;;;3.48;100.00;101176.50;5032745;28;20389;-71
2021/12/17 11:37:33;;;;;;;29.98;12.98;;;;;;;3.55;100.00;101177.53;5033056;28;20057;-71
2021/12/17 11:40:49;;;;;;;27.58;10.10;;;;;;;3.53;100.00;101174.88;5032884;28;20041;-71
2021/12/17 11:43:50;;;;;;;39.55;17.33;;;;;;;3.61;100.00;101163.00;5033961;28;20045;-71
2021/12/17 11:46:35;;;;;;;25.75;13.30;;;;;;;3.62;100.00;101159.56;5033498;28;20045;-72
2021/12/17 11:49:23;;;;;;;14.80;6.22;;;;;;;3.53;100.00;101161.06;5033355;28;20042;-71
2021/12/17 11:52:07;;;;;;;24.80;9.98;;;;;;;3.58;100.00;101157.75;5032817;28;20045;-72
2021/12/17 11:54:51;;;;;;;20.00;7.43;;;;;;;3.56;100.00;101161.13;5033806;28;20048;-72
2021/12/17 11:57:42;;;;;;;30.85;11.40;;;;;;;3.51;100.00;101167.09;5018889;28;20053;-72
2021/12/17 12:00:39;;;;;;;31.73;13.48;;;;;;;3.58;100.00;101169.84;5032353;28;20057;-71
2021/12/17 12:03:24;;;;;;;56.05;22.30;;;;;;;3.49;100.00;101166.16;5033231;28;20072;-72
2021/12/17 12:06:34;;;;;;;94.97;35.42;;;;;;;3.59;100.00;101177.63;5032363;28;20451;-71
2021/12/17 12:09:59;;;;;;;164.77;54.60;;;;;;;3.58;100.00;101169.84;5032288;28;20065;-72
2021/12/17 12:12:48;;;;;;;254.15;68.47;;;;;;;3.65;100.00;101175.19;5032418;28;20053;-71
2021/12/17 12:15:35;;;;;;;231.10;63.08;;;;;;;3.63;100.00;101173.41;5033074;28;20037;-71
2021/12/17 12:18:41;;;;;;;391.13;103.10;;;;;;;3.70;100.00;101173.56;5032255;28;20060;-71
2021/12/17 12:21:32;;;;;;;52.72;16.88;;;;;;;3.66;100.00;101169.16;5032874;28;20038;-71
2021/12/17 12:24:17;;;;;;;153.52;44.67;;;;;;;3.71;100.00;101177.94;5032882;28;20113;-71
2021/12/17 12:27:01;;;;;;;212.70;57.10;;;;;;;3.61;100.00;101169.91;5032681;28;20045;-71
2021/12/17 12:29:45;;;;;;;194.25;63.58;;;;;;;3.58;100.00;101169.84;5032667;28;20049;-71
2021/12/17 12:32:30;;;;;;;160.48;52.70;;;;;;;3.61;100.00;101165.59;5032558;28;20041;-71
2021/12/17 12:35:14;;;;;;;244.13;70.72;;;;;;;3.70;100.00;101160.63;5033103;28;20064;-71
2021/12/17 12:38:14;;;;;;;335.13;135.15;;;;;;;3.59;100.00;101163.81;5032718;28;20419;-71
2021/12/17 12:41:01;;;;;;;229.25;70.15;;;;;;;3.72;100.00;101163.25;5032574;28;20397;-71
2021/12/17 12:43:48;;;;;;;248.38;80.97;;;;;;;3.70;100.00;101162.34;5030708;28;20041;-71
2021/12/17 12:46:53;;;;;;;323.73;106.03;;;;;;;3.63;100.00;101161.31;5029934;28;20042;-71
2021/12/17 12:49:46;;;;;;;203.68;65.70;;;;;;;3.54;100.00;101160.22;5030693;28;20045;-72
2021/12/17 12:52:33;;;;;;;;;;;;;;;3.56;100.00;101174.97;5030393;28;20543;-71
2021/12/17 12:55:26;;;;;;;193.77;60.65;;;;;;;3.54;100.00;101173.16;5030554;28;19921;-72
2021/12/17 12:58:17;;;;;;;308.92;105.00;;;;;;;3.61;100.00;101177.69;5029986;28;20041;-71
2021/12/17 13:01:05;;;;;;;318.52;96.03;;;;;;;3.64;100.00;101181.22;5030867;28;20050;-72
2021/12/17 13:03:49;;;;;;;319.42;113.40;;;;;;;3.59;100.00;101166.41;5030881;28;20513;-71
2021/12/17 13:06:34;;;;;;;132.98;43.45;;;;;;;3.44;100.00;101165.16;5016217;28;20345;-71
2021/12/17 13:09:28;;;;;;;193.45;64.63;;;;;;;3.53;100.00;101161.94;5016247;28;20038;-71
2021/12/17 13:12:13;;;;;;;127.57;41.20;;;;;;;3.48;100.00;101158.38;5032406;28;20053;-71
2021/12/17 13:14:57;;;;;;;174.90;65.10;;;;;;;3.56;100.00;101162.00;5032790;28;20041;-72
2021/12/17 13:20:27;;;;;;;218.15;76.57;;;;;;;3.52;100.00;101157.59;5017836;28;20530;-71
2021/12/17 13:24:13;;;;;;;154.50;53.25;;;;;;;3.60;100.00;101169.00;5032096;28;20343;-71
2021/12/17 13:27:09;;;;;;;75.10;30.02;;;;;;;3.62;100.00;101166.47;5032739;28;20411;-72
2021/12/17 13:29:57;;;;;;;117.47;45.33;;;;;;;3.51;100.00;101159.31;5033812;28;20042;-71
2021/12/17 13:32:42;;;;;;;52.45;19.65;;;;;;;3.45;100.00;101168.66;5035861;28;20483;-71
2021/12/17 13:35:27;;;;;;;112.35;38.42;;;;;;;3.39;100.00;101155.53;5035251;28;20399;-71
2021/12/17 13:38:11;;;;;;;41.35;18.05;;;;;;;3.61;100.00;101167.31;5035917;28;20038;-72
2021/12/17 13:40:56;;;;;;;45.55;13.95;;;;;;;3.47;100.00;101169.53;5035446;28;20064;-71
2021/12/17 13:43:41;;;;;;;27.30;10.80;;;;;;;3.36;100.00;101173.59;5020933;28;20050;-71
2021/12/17 13:46:27;;;;;;;46.28;15.70;;;;;;;3.43;100.00;101170.31;5035649;28;20041;-71
2021/12/17 13:49:12;;;;;;;32.10;11.00;;;;;;;3.34;100.00;101168.34;5035844;28;20049;-71
2021/12/17 13:51:56;;;;;;;29.95;10.80;;;;;;;3.28;100.00;101158.72;5035281;28;20042;-72
2021/12/17 13:54:44;;;;;;;30.02;9.35;;;;;;;3.39;100.00;101174.53;5020477;28;20064;-72
2021/12/17 13:57:31;;;;;;;26.70;8.98;;;;;;;3.35;100.00;101171.81;5034932;28;20045;-71
2021/12/17 14:00:34;;;;;;;24.65;8.63;;;;;;;3.35;100.00;101174.41;5034854;28;20054;-71
2021/12/17 14:03:23;;;;;;;18.55;7.55;;;;;;;3.35;100.00;101183.06;5035331;28;20042;-71
2021/12/17 14:06:21;;;;;;;28.15;8.93;;;;;;;3.36;100.00;101191.72;5035324;28;20045;-71
2021/12/17 14:09:06;;;;;;;34.25;15.77;;;;;;;3.26;100.00;101195.78;5035162;28;20033;-71
2021/12/17 14:11:50;;;;;;;24.73;8.98;;;;;;;3.33;100.00;101197.69;5034264;28;20128;-71
2021/12/17 14:14:35;;;;;;;28.15;12.27;;;;;;;3.37;100.00;101196.03;5034281;28;20057;-71
2021/12/17 14:17:19;;;;;;;14.00;6.15;;;;;;;3.23;100.00;101193.97;5034862;28;20041;-71
2021/12/17 14:20:09;;;;;;;21.13;6.95;;;;;;;3.26;100.00;101201.81;5035351;28;20037;-71
2021/12/17 14:22:56;;;;;;;24.63;6.30;;;;;;;3.33;100.00;101210.63;5035346;28;20415;-71
2021/12/17 14:25:45;;;;;;;19.55;6.60;;;;;;;3.37;100.00;101207.28;5034079;28;20041;-71
2021/12/17 14:28:31;;;;;;;16.85;5.97;;;;;;;3.36;100.00;101209.84;5033918;28;20405;-71
2021/12/17 14:31:18;;;;;;;21.88;6.03;;;;;;;3.36;100.00;101207.25;5020101;28;20073;-71
2021/12/17 14:34:02;;;;;;;30.30;11.00;;;;;;;3.30;100.00;101199.31;5035022;28;20465;-71
2021/12/17 14:36:46;;;;;;;14.15;5.07;;;;;;;3.27;100.00;101194.94;5034982;28;20049;-71
2021/12/17 14:39:37;;;;;;;24.27;7.22;;;;;;;3.28;100.00;101188.91;5035057;28;20366;-71
2021/12/17 14:42:32;;;;;;;19.08;5.38;;;;;;;3.24;100.00;101190.53;5032424;28;20049;-71
2021/12/17 14:45:20;;;;;;;17.35;5.82;;;;;;;3.21;100.00;101189.59;5034244;28;20482;-71
2021/12/17 14:48:26;;;;;;;14.23;5.65;;;;;;;3.18;100.00;101189.50;5034376;28;20042;-71
2021/12/17 15:00:47;;;;;;;18.13;5.25;;;;;;;3.03;100.00;101201.19;5033353;28;20053;-71
2021/12/17 15:03:43;;;;;;;20.17;6.03;;;;;;;3.04;100.00;101199.47;5034171;28;20057;-71
2021/12/17 15:06:28;;;;;;;20.25;5.57;;;;;;;3.01;100.00;101191.63;5033432;28;20052;-71
2021/12/17 15:09:12;;;;;;;19.23;6.15;;;;;;;3.03;100.00;101193.44;5034048;28;20045;-71
2021/12/17 15:11:59;;;;;;;16.00;5.28;;;;;;;2.98;100.00;101186.38;5034317;28;20046;-71
2021/12/17 15:14:43;;;;;;;21.38;5.38;;;;;;;3.01;100.00;101187.34;5034030;28;20094;-71
2021/12/17 15:17:28;;;;;;;17.80;5.95;;;;;;;2.96;100.00;101195.81;5033251;28;20126;-71
2021/12/17 15:20:15;;;;;;;15.63;5.88;;;;;;;2.84;100.00;101180.81;5033317;28;20074;-71
2021/12/17 15:23:02;;;;;;;22.25;6.97;;;;;;;2.73;100.00;101170.19;5033186;28;20144;-71
2021/12/17 15:25:48;;;;;;;25.10;7.03;;;;;;;2.80;100.00;101197.97;5033295;28;20045;-71
2021/12/17 15:28:32;;;;;;;19.45;5.95;;;;;;;2.76;100.00;101203.91;5033893;28;20435;-71
2021/12/17 15:31:16;;;;;;;18.33;7.03;;;;;;;2.89;100.00;101186.09;5033092;28;20117;-71
2021/12/17 15:34:01;;;;;;;21.33;7.47;;;;;;;2.72;100.00;101202.03;5033809;28;20042;-73
2021/12/17 15:36:45;;;;;;;20.50;6.10;;;;;;;2.73;100.00;101196.06;5018055;28;20044;-71
2021/12/17 15:39:30;;;;;;;25.10;8.85;;;;;;;2.72;100.00;101204.63;5019148;28;20057;-71
2021/12/17 15:42:14;;;;;;;22.38;5.95;;;;;;;2.64;100.00;101202.66;5033564;28;20397;-70
2021/12/17 15:44:58;;;;;;;18.98;7.35;;;;;;;2.71;100.00;101218.41;5032771;28;20098;-70
2021/12/17 15:47:43;;;;;;;29.92;7.93;;;;;;;2.71;100.00;101215.81;5033525;28;20488;-72
2021/12/17 15:50:27;;;;;;;19.75;7.40;;;;;;;2.72;100.00;101224.44;5033565;28;20056;-72
2021/12/17 15:53:11;;;;;;;20.50;6.90;;;;;;;2.68;100.00;101228.66;5033052;28;20124;-72
2021/12/17 15:55:56;;;;;;;24.75;6.70;;;;;;;2.70;100.00;101221.84;5033433;28;20033;-72
2021/12/17 15:58:40;;;;;;;22.17;7.18;;;;;;;2.70;100.00;101220.97;5033295;28;20053;-72